sensor_id;sensor_type;location;lat;lon;timestamp;temperature;humidity
12819;DHT22;6474;53.474;9.894;2022-12-18T00:01:25;-6.00;88.00
12819;DHT22;6474;53.474;9.894;2022-12-18T00:03:55;-6.00;88.10
12819;DHT22;6474;53.474;9.894;2022-12-18T00:06:24;-6.00;88.10
12819;DHT22;6474;53.474;9.894;2022-12-18T00:08:53;-6.00;88.10
12819;DHT22;6474;53.474;9.894;2022-12-18T00:11:23;-6.10;88.00
12819;DHT22;6474;53.474;9.894;2022-12-18T00:13:52;-6.10;87.90
12819;DHT22;6474;53.474;9.894;2022-12-18T00:16:22;-6.10;87.90
12819;DHT22;6474;53.474;9.894;2022-12-18T00:18:54;-6.10;87.90
12819;DHT22;6474;53.474;9.894;2022-12-18T00:21:22;-6.10;87.90
12819;DHT22;6474;53.474;9.894;2022-12-18T00:23:50;-6.20;87.70
12819;DHT22;6474;53.474;9.894;2022-12-18T00:26:20;-6.20;87.70
12819;DHT22;6474;53.474;9.894;2022-12-18T00:28:48;-6.20;87.80
12819;DHT22;6474;53.474;9.894;2022-12-18T00:31:21;-6.20;87.90
12819;DHT22;6474;53.474;9.894;2022-12-18T00:33:50;-6.20;87.90
12819;DHT22;6474;53.474;9.894;2022-12-18T00:36:25;-6.20;87.80
12819;DHT22;6474;53.474;9.894;2022-12-18T00:38:53;-6.20;87.90
12819;DHT22;6474;53.474;9.894;2022-12-18T00:41:22;-6.30;87.80
12819;DHT22;6474;53.474;9.894;2022-12-18T00:44:10;-6.30;87.80
12819;DHT22;6474;53.474;9.894;2022-12-18T00:46:38;-6.30;87.80
12819;DHT22;6474;53.474;9.894;2022-12-18T00:49:07;-6.30;87.70
12819;DHT22;6474;53.474;9.894;2022-12-18T00:51:36;-6.40;87.60
12819;DHT22;6474;53.474;9.894;2022-12-18T00:54:03;-6.40;87.60
12819;DHT22;6474;53.474;9.894;2022-12-18T00:56:31;-6.40;87.60
12819;DHT22;6474;53.474;9.894;2022-12-18T00:58:59;-6.40;87.70
12819;DHT22;6474;53.474;9.894;2022-12-18T01:01:27;-6.40;87.80
12819;DHT22;6474;53.474;9.894;2022-12-18T01:03:55;-6.40;87.90
12819;DHT22;6474;53.474;9.894;2022-12-18T01:06:23;-6.40;87.90
12819;DHT22;6474;53.474;9.894;2022-12-18T01:08:52;-6.40;87.80
12819;DHT22;6474;53.474;9.894;2022-12-18T01:11:21;-6.40;87.80
12819;DHT22;6474;53.474;9.894;2022-12-18T01:13:48;-6.40;87.80
12819;DHT22;6474;53.474;9.894;2022-12-18T01:16:17;-6.50;87.60
12819;DHT22;6474;53.474;9.894;2022-12-18T01:18:45;-6.50;87.60
12819;DHT22;6474;53.474;9.894;2022-12-18T01:21:14;-6.50;87.60
12819;DHT22;6474;53.474;9.894;2022-12-18T01:23:45;-6.50;87.60
12819;DHT22;6474;53.474;9.894;2022-12-18T01:26:15;-6.50;87.60
12819;DHT22;6474;53.474;9.894;2022-12-18T01:28:43;-6.50;87.60
12819;DHT22;6474;53.474;9.894;2022-12-18T01:31:14;-6.60;87.60
12819;DHT22;6474;53.474;9.894;2022-12-18T01:33:42;-6.50;87.70
12819;DHT22;6474;53.474;9.894;2022-12-18T01:36:15;-6.60;87.70
12819;DHT22;6474;53.474;9.894;2022-12-18T01:38:44;-6.60;87.70
12819;DHT22;6474;53.474;9.894;2022-12-18T01:41:12;-6.60;87.70
12819;DHT22;6474;53.474;9.894;2022-12-18T01:43:51;-6.60;87.70
12819;DHT22;6474;53.474;9.894;2022-12-18T01:46:20;-6.60;87.70
12819;DHT22;6474;53.474;9.894;2022-12-18T01:48:51;-6.60;87.80
12819;DHT22;6474;53.474;9.894;2022-12-18T01:51:20;-6.60;88.00
12819;DHT22;6474;53.474;9.894;2022-12-18T01:53:48;-6.60;87.90
12819;DHT22;6474;53.474;9.894;2022-12-18T01:56:20;-6.60;87.80
12819;DHT22;6474;53.474;9.894;2022-12-18T01:58:53;-6.60;87.80
12819;DHT22;6474;53.474;9.894;2022-12-18T02:01:23;-6.60;87.70
12819;DHT22;6474;53.474;9.894;2022-12-18T02:03:52;-6.60;87.60
12819;DHT22;6474;53.474;9.894;2022-12-18T02:06:23;-6.60;87.60
12819;DHT22;6474;53.474;9.894;2022-12-18T02:09:02;-6.60;87.60
12819;DHT22;6474;53.474;9.894;2022-12-18T02:11:39;-6.60;87.60
12819;DHT22;6474;53.474;9.894;2022-12-18T02:14:17;-6.60;87.60
12819;DHT22;6474;53.474;9.894;2022-12-18T02:16:50;-6.70;87.60
12819;DHT22;6474;53.474;9.894;2022-12-18T02:19:43;-6.70;87.70
12819;DHT22;6474;53.474;9.894;2022-12-18T02:22:29;-6.70;87.80
12819;DHT22;6474;53.474;9.894;2022-12-18T02:25:12;-6.70;87.80
12819;DHT22;6474;53.474;9.894;2022-12-18T02:27:44;-6.70;87.80
12819;DHT22;6474;53.474;9.894;2022-12-18T02:30:14;-6.70;87.80
12819;DHT22;6474;53.474;9.894;2022-12-18T02:32:46;-6.70;87.60
12819;DHT22;6474;53.474;9.894;2022-12-18T02:35:17;-6.70;87.60
12819;DHT22;6474;53.474;9.894;2022-12-18T02:37:47;-6.80;87.50
12819;DHT22;6474;53.474;9.894;2022-12-18T02:40:16;-6.80;87.50
12819;DHT22;6474;53.474;9.894;2022-12-18T02:42:46;-6.80;87.40
12819;DHT22;6474;53.474;9.894;2022-12-18T02:45:14;-6.80;87.40
12819;DHT22;6474;53.474;9.894;2022-12-18T02:47:44;-6.80;87.50
12819;DHT22;6474;53.474;9.894;2022-12-18T02:50:18;-6.80;87.50
12819;DHT22;6474;53.474;9.894;2022-12-18T02:52:56;-6.80;87.50
12819;DHT22;6474;53.474;9.894;2022-12-18T02:55:33;-6.90;87.40
12819;DHT22;6474;53.474;9.894;2022-12-18T02:58:12;-6.90;87.40
12819;DHT22;6474;53.474;9.894;2022-12-18T03:00:48;-6.90;87.40
12819;DHT22;6474;53.474;9.894;2022-12-18T03:03:24;-6.90;87.40
12819;DHT22;6474;53.474;9.894;2022-12-18T03:05:55;-6.90;87.40
12819;DHT22;6474;53.474;9.894;2022-12-18T03:08:27;-7.00;87.30
12819;DHT22;6474;53.474;9.894;2022-12-18T03:10:59;-7.00;87.30
12819;DHT22;6474;53.474;9.894;2022-12-18T03:13:33;-7.00;87.30
12819;DHT22;6474;53.474;9.894;2022-12-18T03:16:03;-7.00;87.30
12819;DHT22;6474;53.474;9.894;2022-12-18T03:18:36;-7.00;87.30
12819;DHT22;6474;53.474;9.894;2022-12-18T03:21:06;-7.00;87.30
12819;DHT22;6474;53.474;9.894;2022-12-18T03:23:38;-7.00;87.30
12819;DHT22;6474;53.474;9.894;2022-12-18T03:26:10;-7.10;87.20
12819;DHT22;6474;53.474;9.894;2022-12-18T03:28:45;-7.10;87.20
12819;DHT22;6474;53.474;9.894;2022-12-18T03:31:14;-7.10;87.20
12819;DHT22;6474;53.474;9.894;2022-12-18T03:33:47;-7.10;87.20
12819;DHT22;6474;53.474;9.894;2022-12-18T03:36:15;-7.10;87.20
12819;DHT22;6474;53.474;9.894;2022-12-18T03:38:43;-7.10;87.20
12819;DHT22;6474;53.474;9.894;2022-12-18T03:41:16;-7.10;87.10
12819;DHT22;6474;53.474;9.894;2022-12-18T03:43:51;-7.20;87.10
12819;DHT22;6474;53.474;9.894;2022-12-18T03:46:26;-7.20;87.10
12819;DHT22;6474;53.474;9.894;2022-12-18T03:49:00;-7.20;87.10
12819;DHT22;6474;53.474;9.894;2022-12-18T03:51:38;-7.20;87.10
12819;DHT22;6474;53.474;9.894;2022-12-18T03:54:08;-7.30;87.00
12819;DHT22;6474;53.474;9.894;2022-12-18T03:56:40;-7.30;87.20
12819;DHT22;6474;53.474;9.894;2022-12-18T03:59:11;-7.30;87.30
12819;DHT22;6474;53.474;9.894;2022-12-18T04:01:43;-7.30;87.30
12819;DHT22;6474;53.474;9.894;2022-12-18T04:04:14;-7.30;87.40
12819;DHT22;6474;53.474;9.894;2022-12-18T04:06:43;-7.30;87.40
12819;DHT22;6474;53.474;9.894;2022-12-18T04:09:13;-7.30;87.40
12819;DHT22;6474;53.474;9.894;2022-12-18T04:11:41;-7.30;87.50
12819;DHT22;6474;53.474;9.894;2022-12-18T04:14:11;-7.30;87.60
12819;DHT22;6474;53.474;9.894;2022-12-18T04:16:43;-7.20;87.80
12819;DHT22;6474;53.474;9.894;2022-12-18T04:19:11;-7.20;87.80
12819;DHT22;6474;53.474;9.894;2022-12-18T04:21:39;-7.10;87.90
12819;DHT22;6474;53.474;9.894;2022-12-18T04:24:07;-7.10;88.10
12819;DHT22;6474;53.474;9.894;2022-12-18T04:26:35;-7.00;88.80
12819;DHT22;6474;53.474;9.894;2022-12-18T04:29:02;-6.90;88.30
12819;DHT22;6474;53.474;9.894;2022-12-18T04:31:31;-6.90;88.30
12819;DHT22;6474;53.474;9.894;2022-12-18T04:33:59;-6.80;88.20
12819;DHT22;6474;53.474;9.894;2022-12-18T04:36:27;-6.70;88.20
12819;DHT22;6474;53.474;9.894;2022-12-18T04:38:55;-6.60;88.10
12819;DHT22;6474;53.474;9.894;2022-12-18T04:41:23;-6.60;87.90
12819;DHT22;6474;53.474;9.894;2022-12-18T04:43:51;-6.60;87.70
12819;DHT22;6474;53.474;9.894;2022-12-18T04:46:18;-6.60;87.70
12819;DHT22;6474;53.474;9.894;2022-12-18T04:48:48;-6.50;87.90
12819;DHT22;6474;53.474;9.894;2022-12-18T04:51:15;-6.50;87.90
12819;DHT22;6474;53.474;9.894;2022-12-18T04:53:51;-6.50;87.80
12819;DHT22;6474;53.474;9.894;2022-12-18T04:56:19;-6.50;87.80
12819;DHT22;6474;53.474;9.894;2022-12-18T04:58:47;-6.40;88.00
12819;DHT22;6474;53.474;9.894;2022-12-18T05:01:16;-6.30;88.00
12819;DHT22;6474;53.474;9.894;2022-12-18T05:03:44;-6.30;88.00
12819;DHT22;6474;53.474;9.894;2022-12-18T05:06:14;-6.20;88.20
12819;DHT22;6474;53.474;9.894;2022-12-18T05:08:41;-6.10;88.30
12819;DHT22;6474;53.474;9.894;2022-12-18T05:11:11;-6.10;88.20
12819;DHT22;6474;53.474;9.894;2022-12-18T05:13:40;-6.00;88.10
12819;DHT22;6474;53.474;9.894;2022-12-18T05:16:09;-6.00;87.90
12819;DHT22;6474;53.474;9.894;2022-12-18T05:18:37;-5.90;87.90
12819;DHT22;6474;53.474;9.894;2022-12-18T05:21:05;-5.90;87.80
12819;DHT22;6474;53.474;9.894;2022-12-18T05:23:35;-6.00;87.50
12819;DHT22;6474;53.474;9.894;2022-12-18T05:26:06;-5.90;87.90
12819;DHT22;6474;53.474;9.894;2022-12-18T05:28:35;-5.90;87.90
12819;DHT22;6474;53.474;9.894;2022-12-18T05:31:04;-5.90;87.80
12819;DHT22;6474;53.474;9.894;2022-12-18T05:33:34;-5.90;87.80
12819;DHT22;6474;53.474;9.894;2022-12-18T05:36:03;-5.90;87.80
12819;DHT22;6474;53.474;9.894;2022-12-18T05:38:34;-5.90;88.20
12819;DHT22;6474;53.474;9.894;2022-12-18T05:41:03;-5.90;87.60
12819;DHT22;6474;53.474;9.894;2022-12-18T05:43:33;-5.90;87.70
12819;DHT22;6474;53.474;9.894;2022-12-18T05:46:04;-5.90;87.80
12819;DHT22;6474;53.474;9.894;2022-12-18T05:48:32;-6.00;87.60
12819;DHT22;6474;53.474;9.894;2022-12-18T05:51:04;-5.90;87.70
12819;DHT22;6474;53.474;9.894;2022-12-18T05:53:32;-6.00;87.70
12819;DHT22;6474;53.474;9.894;2022-12-18T05:56:03;-6.00;87.70
12819;DHT22;6474;53.474;9.894;2022-12-18T05:58:32;-6.00;87.70
12819;DHT22;6474;53.474;9.894;2022-12-18T06:01:07;-6.00;87.80
12819;DHT22;6474;53.474;9.894;2022-12-18T06:03:35;-6.00;87.90
12819;DHT22;6474;53.474;9.894;2022-12-18T06:06:11;-5.90;88.10
12819;DHT22;6474;53.474;9.894;2022-12-18T06:08:39;-5.90;88.10
12819;DHT22;6474;53.474;9.894;2022-12-18T06:11:17;-5.90;88.00
12819;DHT22;6474;53.474;9.894;2022-12-18T06:13:45;-5.90;88.00
12819;DHT22;6474;53.474;9.894;2022-12-18T06:16:13;-5.90;88.10
12819;DHT22;6474;53.474;9.894;2022-12-18T06:18:41;-5.80;88.10
12819;DHT22;6474;53.474;9.894;2022-12-18T06:21:08;-5.80;88.10
12819;DHT22;6474;53.474;9.894;2022-12-18T06:23:36;-5.80;88.00
12819;DHT22;6474;53.474;9.894;2022-12-18T06:26:06;-5.80;88.00
12819;DHT22;6474;53.474;9.894;2022-12-18T06:28:35;-5.80;88.00
12819;DHT22;6474;53.474;9.894;2022-12-18T06:31:04;-5.80;87.90
12819;DHT22;6474;53.474;9.894;2022-12-18T06:33:32;-5.80;88.00
12819;DHT22;6474;53.474;9.894;2022-12-18T06:36:01;-5.70;88.20
12819;DHT22;6474;53.474;9.894;2022-12-18T06:38:29;-5.70;88.10
12819;DHT22;6474;53.474;9.894;2022-12-18T06:40:57;-5.80;87.90
12819;DHT22;6474;53.474;9.894;2022-12-18T06:43:25;-5.70;88.10
12819;DHT22;6474;53.474;9.894;2022-12-18T06:45:59;-5.70;88.10
12819;DHT22;6474;53.474;9.894;2022-12-18T06:48:27;-5.70;88.00
12819;DHT22;6474;53.474;9.894;2022-12-18T06:50:55;-5.70;88.00
12819;DHT22;6474;53.474;9.894;2022-12-18T06:53:23;-5.70;88.00
12819;DHT22;6474;53.474;9.894;2022-12-18T06:55:51;-5.70;87.90
12819;DHT22;6474;53.474;9.894;2022-12-18T06:58:18;-5.60;88.10
12819;DHT22;6474;53.474;9.894;2022-12-18T07:00:46;-5.60;88.00
12819;DHT22;6474;53.474;9.894;2022-12-18T07:03:15;-5.60;88.00
12819;DHT22;6474;53.474;9.894;2022-12-18T07:05:43;-5.60;88.00
12819;DHT22;6474;53.474;9.894;2022-12-18T07:08:11;-5.60;88.30
12819;DHT22;6474;53.474;9.894;2022-12-18T07:10:41;-5.60;88.30
12819;DHT22;6474;53.474;9.894;2022-12-18T07:13:13;-5.50;88.50
12819;DHT22;6474;53.474;9.894;2022-12-18T07:15:41;-5.40;88.40
12819;DHT22;6474;53.474;9.894;2022-12-18T07:18:09;-5.40;88.30
12819;DHT22;6474;53.474;9.894;2022-12-18T07:20:38;-5.40;88.20
12819;DHT22;6474;53.474;9.894;2022-12-18T07:23:06;-5.40;88.20
12819;DHT22;6474;53.474;9.894;2022-12-18T07:25:34;-5.40;88.10
12819;DHT22;6474;53.474;9.894;2022-12-18T07:28:02;-5.40;88.00
12819;DHT22;6474;53.474;9.894;2022-12-18T07:30:30;-5.40;87.80
12819;DHT22;6474;53.474;9.894;2022-12-18T07:32:57;-5.40;87.80
12819;DHT22;6474;53.474;9.894;2022-12-18T07:35:25;-5.40;87.80
12819;DHT22;6474;53.474;9.894;2022-12-18T07:37:54;-5.30;87.90
12819;DHT22;6474;53.474;9.894;2022-12-18T07:40:22;-5.40;88.00
12819;DHT22;6474;53.474;9.894;2022-12-18T07:42:50;-5.30;88.10
12819;DHT22;6474;53.474;9.894;2022-12-18T07:45:18;-5.30;88.10
12819;DHT22;6474;53.474;9.894;2022-12-18T07:47:45;-5.30;88.20
12819;DHT22;6474;53.474;9.894;2022-12-18T07:50:13;-5.30;88.20
12819;DHT22;6474;53.474;9.894;2022-12-18T07:52:41;-5.30;88.30
12819;DHT22;6474;53.474;9.894;2022-12-18T07:55:10;-5.30;88.30
12819;DHT22;6474;53.474;9.894;2022-12-18T07:57:38;-5.20;88.30
12819;DHT22;6474;53.474;9.894;2022-12-18T08:00:26;-5.20;88.20
12819;DHT22;6474;53.474;9.894;2022-12-18T08:02:55;-5.20;88.30
12819;DHT22;6474;53.474;9.894;2022-12-18T08:05:23;-5.10;88.40
12819;DHT22;6474;53.474;9.894;2022-12-18T08:07:50;-5.10;88.30
12819;DHT22;6474;53.474;9.894;2022-12-18T08:10:20;-5.10;88.10
12819;DHT22;6474;53.474;9.894;2022-12-18T08:12:49;-5.10;88.10
12819;DHT22;6474;53.474;9.894;2022-12-18T08:15:18;-5.10;88.10
12819;DHT22;6474;53.474;9.894;2022-12-18T08:17:45;-5.00;88.30
12819;DHT22;6474;53.474;9.894;2022-12-18T08:20:13;-5.00;88.20
12819;DHT22;6474;53.474;9.894;2022-12-18T08:22:41;-5.00;88.20
12819;DHT22;6474;53.474;9.894;2022-12-18T08:25:10;-5.00;88.20
12819;DHT22;6474;53.474;9.894;2022-12-18T08:27:39;-5.00;88.20
12819;DHT22;6474;53.474;9.894;2022-12-18T08:30:08;-5.00;88.20
12819;DHT22;6474;53.474;9.894;2022-12-18T08:32:36;-5.00;88.20
12819;DHT22;6474;53.474;9.894;2022-12-18T08:35:05;-5.00;88.30
12819;DHT22;6474;53.474;9.894;2022-12-18T08:37:34;-5.00;88.40
12819;DHT22;6474;53.474;9.894;2022-12-18T08:40:02;-5.00;88.50
12819;DHT22;6474;53.474;9.894;2022-12-18T08:42:30;-5.00;88.60
12819;DHT22;6474;53.474;9.894;2022-12-18T08:45:17;-4.90;88.60
12819;DHT22;6474;53.474;9.894;2022-12-18T08:47:45;-4.90;88.70
12819;DHT22;6474;53.474;9.894;2022-12-18T08:50:13;-4.90;88.80
12819;DHT22;6474;53.474;9.894;2022-12-18T08:52:41;-4.90;88.70
12819;DHT22;6474;53.474;9.894;2022-12-18T08:55:09;-4.90;88.70
12819;DHT22;6474;53.474;9.894;2022-12-18T08:57:37;-4.90;88.80
12819;DHT22;6474;53.474;9.894;2022-12-18T09:00:06;-4.90;88.80
12819;DHT22;6474;53.474;9.894;2022-12-18T09:02:35;-4.90;88.70
12819;DHT22;6474;53.474;9.894;2022-12-18T09:05:04;-4.80;88.80
12819;DHT22;6474;53.474;9.894;2022-12-18T09:07:31;-4.90;88.70
12819;DHT22;6474;53.474;9.894;2022-12-18T09:09:59;-4.80;88.90
12819;DHT22;6474;53.474;9.894;2022-12-18T09:12:27;-4.80;88.90
12819;DHT22;6474;53.474;9.894;2022-12-18T09:14:55;-4.80;88.90
12819;DHT22;6474;53.474;9.894;2022-12-18T09:17:23;-4.80;89.00
12819;DHT22;6474;53.474;9.894;2022-12-18T09:19:52;-4.80;88.90
12819;DHT22;6474;53.474;9.894;2022-12-18T09:22:21;-4.70;89.00
12819;DHT22;6474;53.474;9.894;2022-12-18T09:24:50;-4.70;89.10
12819;DHT22;6474;53.474;9.894;2022-12-18T09:27:18;-4.60;89.20
12819;DHT22;6474;53.474;9.894;2022-12-18T09:29:46;-4.60;89.30
12819;DHT22;6474;53.474;9.894;2022-12-18T09:32:14;-4.60;89.40
12819;DHT22;6474;53.474;9.894;2022-12-18T09:34:48;-4.50;89.50
12819;DHT22;6474;53.474;9.894;2022-12-18T09:37:17;-4.50;89.50
12819;DHT22;6474;53.474;9.894;2022-12-18T09:39:45;-4.50;89.50
12819;DHT22;6474;53.474;9.894;2022-12-18T09:42:19;-4.40;89.70
12819;DHT22;6474;53.474;9.894;2022-12-18T09:44:50;-4.30;89.80
12819;DHT22;6474;53.474;9.894;2022-12-18T09:47:22;-4.30;89.90
12819;DHT22;6474;53.474;9.894;2022-12-18T09:49:53;-4.20;90.00
12819;DHT22;6474;53.474;9.894;2022-12-18T09:52:26;-4.20;90.00
12819;DHT22;6474;53.474;9.894;2022-12-18T09:55:00;-4.10;90.00
12819;DHT22;6474;53.474;9.894;2022-12-18T09:57:32;-4.10;90.00
12819;DHT22;6474;53.474;9.894;2022-12-18T10:00:06;-4.00;90.00
12819;DHT22;6474;53.474;9.894;2022-12-18T10:02:36;-4.00;90.00
12819;DHT22;6474;53.474;9.894;2022-12-18T10:05:07;-3.90;90.10
12819;DHT22;6474;53.474;9.894;2022-12-18T10:07:52;-3.90;90.10
12819;DHT22;6474;53.474;9.894;2022-12-18T10:10:36;-3.80;90.10
12819;DHT22;6474;53.474;9.894;2022-12-18T10:13:14;-3.80;90.20
12819;DHT22;6474;53.474;9.894;2022-12-18T10:15:54;-3.70;90.30
12819;DHT22;6474;53.474;9.894;2022-12-18T10:18:42;-3.60;90.30
12819;DHT22;6474;53.474;9.894;2022-12-18T10:21:17;-3.60;90.30
12819;DHT22;6474;53.474;9.894;2022-12-18T10:23:55;-3.50;90.30
12819;DHT22;6474;53.474;9.894;2022-12-18T10:26:27;-3.50;90.30
12819;DHT22;6474;53.474;9.894;2022-12-18T10:28:56;-3.40;90.40
12819;DHT22;6474;53.474;9.894;2022-12-18T10:31:30;-3.40;90.40
12819;DHT22;6474;53.474;9.894;2022-12-18T10:33:58;-3.30;90.40
12819;DHT22;6474;53.474;9.894;2022-12-18T10:36:26;-3.30;90.40
12819;DHT22;6474;53.474;9.894;2022-12-18T10:39:13;-3.30;90.40
12819;DHT22;6474;53.474;9.894;2022-12-18T10:41:41;-3.30;90.40
12819;DHT22;6474;53.474;9.894;2022-12-18T10:44:17;-3.20;90.50
12819;DHT22;6474;53.474;9.894;2022-12-18T10:46:47;-3.20;90.50
12819;DHT22;6474;53.474;9.894;2022-12-18T10:49:24;-3.20;90.50
12819;DHT22;6474;53.474;9.894;2022-12-18T10:52:05;-3.10;90.60
12819;DHT22;6474;53.474;9.894;2022-12-18T10:54:35;-3.10;90.60
12819;DHT22;6474;53.474;9.894;2022-12-18T10:57:20;-3.10;90.60
12819;DHT22;6474;53.474;9.894;2022-12-18T10:59:58;-3.00;90.70
12819;DHT22;6474;53.474;9.894;2022-12-18T11:02:28;-3.00;90.70
12819;DHT22;6474;53.474;9.894;2022-12-18T11:05:01;-3.00;90.80
12819;DHT22;6474;53.474;9.894;2022-12-18T11:07:48;-2.90;90.70
12819;DHT22;6474;53.474;9.894;2022-12-18T11:10:19;-2.90;90.70
12819;DHT22;6474;53.474;9.894;2022-12-18T11:12:47;-2.80;90.70
12819;DHT22;6474;53.474;9.894;2022-12-18T11:15:19;-2.80;90.70
12819;DHT22;6474;53.474;9.894;2022-12-18T11:17:49;-2.80;90.70
12819;DHT22;6474;53.474;9.894;2022-12-18T11:20:27;-2.80;90.70
12819;DHT22;6474;53.474;9.894;2022-12-18T11:22:59;-2.80;90.70
12819;DHT22;6474;53.474;9.894;2022-12-18T11:25:30;-2.70;90.70
12819;DHT22;6474;53.474;9.894;2022-12-18T11:28:02;-2.70;90.70
12819;DHT22;6474;53.474;9.894;2022-12-18T11:30:31;-2.70;90.70
12819;DHT22;6474;53.474;9.894;2022-12-18T11:33:04;-2.70;90.70
12819;DHT22;6474;53.474;9.894;2022-12-18T11:35:40;-2.70;90.70
12819;DHT22;6474;53.474;9.894;2022-12-18T11:38:18;-2.60;90.80
12819;DHT22;6474;53.474;9.894;2022-12-18T11:40:55;-2.60;90.80
12819;DHT22;6474;53.474;9.894;2022-12-18T11:43:27;-2.60;90.80
12819;DHT22;6474;53.474;9.894;2022-12-18T11:46:00;-2.60;90.80
12819;DHT22;6474;53.474;9.894;2022-12-18T11:48:32;-2.60;90.80
12819;DHT22;6474;53.474;9.894;2022-12-18T11:51:04;-2.50;90.80
12819;DHT22;6474;53.474;9.894;2022-12-18T11:53:32;-2.50;90.80
12819;DHT22;6474;53.474;9.894;2022-12-18T11:56:27;-2.50;90.80
12819;DHT22;6474;53.474;9.894;2022-12-18T11:59:05;-2.50;90.80
12819;DHT22;6474;53.474;9.894;2022-12-18T12:01:44;-2.50;90.80
12819;DHT22;6474;53.474;9.894;2022-12-18T12:04:41;-2.50;90.80
12819;DHT22;6474;53.474;9.894;2022-12-18T12:07:24;-2.40;90.80
12819;DHT22;6474;53.474;9.894;2022-12-18T12:10:07;-2.40;90.80
12819;DHT22;6474;53.474;9.894;2022-12-18T12:12:52;-2.40;90.80
12819;DHT22;6474;53.474;9.894;2022-12-18T12:15:33;-2.40;90.80
12819;DHT22;6474;53.474;9.894;2022-12-18T12:18:12;-2.30;90.90
12819;DHT22;6474;53.474;9.894;2022-12-18T12:20:58;-2.30;90.80
12819;DHT22;6474;53.474;9.894;2022-12-18T12:23:37;-2.30;90.80
12819;DHT22;6474;53.474;9.894;2022-12-18T12:26:11;-2.30;90.80
12819;DHT22;6474;53.474;9.894;2022-12-18T12:28:54;-2.30;90.80
12819;DHT22;6474;53.474;9.894;2022-12-18T12:31:32;-2.30;90.80
12819;DHT22;6474;53.474;9.894;2022-12-18T12:34:12;-2.20;90.90
12819;DHT22;6474;53.474;9.894;2022-12-18T12:36:52;-2.20;90.90
12819;DHT22;6474;53.474;9.894;2022-12-18T12:39:23;-2.20;90.90
12819;DHT22;6474;53.474;9.894;2022-12-18T12:41:52;-2.10;90.90
12819;DHT22;6474;53.474;9.894;2022-12-18T12:44:42;-2.10;90.90
12819;DHT22;6474;53.474;9.894;2022-12-18T12:47:14;-2.00;90.90
12819;DHT22;6474;53.474;9.894;2022-12-18T12:49:42;-2.00;90.90
12819;DHT22;6474;53.474;9.894;2022-12-18T12:52:27;-2.00;90.90
12819;DHT22;6474;53.474;9.894;2022-12-18T12:54:56;-1.90;91.00
12819;DHT22;6474;53.474;9.894;2022-12-18T12:57:30;-1.90;91.00
12819;DHT22;6474;53.474;9.894;2022-12-18T13:00:04;-1.80;91.00
12819;DHT22;6474;53.474;9.894;2022-12-18T13:02:37;-1.80;90.90
12819;DHT22;6474;53.474;9.894;2022-12-18T13:05:14;-1.80;90.90
12819;DHT22;6474;53.474;9.894;2022-12-18T13:07:49;-1.80;90.80
12819;DHT22;6474;53.474;9.894;2022-12-18T13:10:28;-1.80;90.80
12819;DHT22;6474;53.474;9.894;2022-12-18T13:13:00;-1.80;90.80
12819;DHT22;6474;53.474;9.894;2022-12-18T13:15:38;-1.80;90.90
12819;DHT22;6474;53.474;9.894;2022-12-18T13:18:18;-1.80;90.90
12819;DHT22;6474;53.474;9.894;2022-12-18T13:20:49;-1.90;90.90
12819;DHT22;6474;53.474;9.894;2022-12-18T13:23:31;-1.90;90.90
12819;DHT22;6474;53.474;9.894;2022-12-18T13:26:32;-2.00;90.80
12819;DHT22;6474;53.474;9.894;2022-12-18T13:29:01;-2.00;90.80
12819;DHT22;6474;53.474;9.894;2022-12-18T13:34:30;-2.20;90.60
12819;DHT22;6474;53.474;9.894;2022-12-18T13:40:00;-2.30;90.60
12819;DHT22;6474;53.474;9.894;2022-12-18T13:42:38;-2.30;90.60
12819;DHT22;6474;53.474;9.894;2022-12-18T13:45:45;-2.40;90.60
12819;DHT22;6474;53.474;9.894;2022-12-18T13:48:19;-2.40;90.60
12819;DHT22;6474;53.474;9.894;2022-12-18T13:50:53;-2.50;90.50
12819;DHT22;6474;53.474;9.894;2022-12-18T13:53:26;-2.50;90.50
12819;DHT22;6474;53.474;9.894;2022-12-18T13:55:55;-2.60;90.40
12819;DHT22;6474;53.474;9.894;2022-12-18T13:58:24;-2.60;90.50
12819;DHT22;6474;53.474;9.894;2022-12-18T14:00:51;-2.60;90.50
12819;DHT22;6474;53.474;9.894;2022-12-18T14:03:21;-2.70;90.40
12819;DHT22;6474;53.474;9.894;2022-12-18T14:05:58;-2.70;90.40
12819;DHT22;6474;53.474;9.894;2022-12-18T14:08:33;-2.70;90.40
12819;DHT22;6474;53.474;9.894;2022-12-18T14:11:04;-2.80;90.40
12819;DHT22;6474;53.474;9.894;2022-12-18T14:13:36;-2.80;90.40
12819;DHT22;6474;53.474;9.894;2022-12-18T14:16:05;-2.90;90.40
12819;DHT22;6474;53.474;9.894;2022-12-18T14:18:41;-2.90;90.40
12819;DHT22;6474;53.474;9.894;2022-12-18T14:21:19;-2.90;90.30
12819;DHT22;6474;53.474;9.894;2022-12-18T14:23:50;-3.00;90.30
12819;DHT22;6474;53.474;9.894;2022-12-18T14:26:37;-3.00;90.30
12819;DHT22;6474;53.474;9.894;2022-12-18T14:29:22;-3.00;90.20
12819;DHT22;6474;53.474;9.894;2022-12-18T14:33:17;-3.00;90.20
12819;DHT22;6474;53.474;9.894;2022-12-18T14:39:27;-3.20;90.00
12819;DHT22;6474;53.474;9.894;2022-12-18T14:42:02;-3.20;90.00
12819;DHT22;6474;53.474;9.894;2022-12-18T14:44:49;-3.30;90.00
12819;DHT22;6474;53.474;9.894;2022-12-18T14:47:43;-3.30;90.00
12819;DHT22;6474;53.474;9.894;2022-12-18T14:50:13;-3.30;90.00
12819;DHT22;6474;53.474;9.894;2022-12-18T14:52:41;-3.30;90.00
12819;DHT22;6474;53.474;9.894;2022-12-18T14:55:16;-3.40;90.00
12819;DHT22;6474;53.474;9.894;2022-12-18T14:57:49;-3.40;90.00
12819;DHT22;6474;53.474;9.894;2022-12-18T15:00:31;-3.40;89.90
12819;DHT22;6474;53.474;9.894;2022-12-18T15:03:01;-3.50;89.70
12819;DHT22;6474;53.474;9.894;2022-12-18T15:05:34;-3.50;89.70
12819;DHT22;6474;53.474;9.894;2022-12-18T15:08:03;-3.60;89.60
12819;DHT22;6474;53.474;9.894;2022-12-18T15:10:33;-3.60;89.60
12819;DHT22;6474;53.474;9.894;2022-12-18T15:13:09;-3.60;89.60
12819;DHT22;6474;53.474;9.894;2022-12-18T15:15:45;-3.70;89.50
12819;DHT22;6474;53.474;9.894;2022-12-18T15:18:15;-3.70;89.50
12819;DHT22;6474;53.474;9.894;2022-12-18T15:20:44;-3.70;89.50
12819;DHT22;6474;53.474;9.894;2022-12-18T15:23:16;-3.70;89.50
12819;DHT22;6474;53.474;9.894;2022-12-18T15:25:46;-3.80;89.40
12819;DHT22;6474;53.474;9.894;2022-12-18T15:28:24;-3.80;89.40
12819;DHT22;6474;53.474;9.894;2022-12-18T15:31:00;-3.80;89.40
12819;DHT22;6474;53.474;9.894;2022-12-18T15:33:31;-3.90;89.40
12819;DHT22;6474;53.474;9.894;2022-12-18T15:36:02;-3.90;89.60
12819;DHT22;6474;53.474;9.894;2022-12-18T15:38:31;-3.90;89.80
12819;DHT22;6474;53.474;9.894;2022-12-18T15:41:00;-3.90;89.80
12819;DHT22;6474;53.474;9.894;2022-12-18T15:43:31;-3.90;89.90
12819;DHT22;6474;53.474;9.894;2022-12-18T15:46:03;-3.90;90.00
12819;DHT22;6474;53.474;9.894;2022-12-18T15:48:33;-3.90;90.00
12819;DHT22;6474;53.474;9.894;2022-12-18T15:51:01;-3.90;90.10
12819;DHT22;6474;53.474;9.894;2022-12-18T15:53:31;-3.90;90.00
12819;DHT22;6474;53.474;9.894;2022-12-18T15:56:01;-3.90;90.00
12819;DHT22;6474;53.474;9.894;2022-12-18T15:58:47;-3.90;90.10
12819;DHT22;6474;53.474;9.894;2022-12-18T16:01:18;-3.80;90.10
12819;DHT22;6474;53.474;9.894;2022-12-18T16:03:46;-3.80;90.10
12819;DHT22;6474;53.474;9.894;2022-12-18T16:06:14;-3.80;90.10
12819;DHT22;6474;53.474;9.894;2022-12-18T16:08:42;-3.80;90.10
12819;DHT22;6474;53.474;9.894;2022-12-18T16:11:20;-3.80;90.10
12819;DHT22;6474;53.474;9.894;2022-12-18T16:14:06;-3.70;90.10
12819;DHT22;6474;53.474;9.894;2022-12-18T16:16:34;-3.80;90.00
12819;DHT22;6474;53.474;9.894;2022-12-18T16:19:02;-3.80;90.00
12819;DHT22;6474;53.474;9.894;2022-12-18T16:21:29;-3.70;90.10
12819;DHT22;6474;53.474;9.894;2022-12-18T16:23:59;-3.70;90.10
12819;DHT22;6474;53.474;9.894;2022-12-18T16:26:32;-3.70;90.10